Azzam Uae2 — A6E2498 — position and weather

sailwx.info

Track history (hours):
 
Tides and Currents Weather Stations Pressure Air Temp Water Temp Dewpoint Dewpoint Depression Visibility Wind Speed Wind Dir Waves Ship Positions

Azzam Uae2

Last reported at 2017-Aug-21 12:00 UTC. Time now 2017-Sep-22 20:38 UTC.
Position N 38°42' W 009°25'.
Warning: this ship's position is 32 days out of date.

MMSI: 470437000.

Date/timePositionNaut miles runAvg speedWind from/ knotsBaromVisibWave heightAir tempDewpointWater temp
2017-Aug-21 12:00N 38°42' W 009°25'0 0.0
2017-Aug-20 14:05N 38°42' W 009°25'0 0.0
2017-Aug-20 13:53N 38°42' W 009°25'1 2.3
2017-Aug-20 13:26N 38°41' W 009°25'1 2.6
2017-Aug-20 13:00N 38°40' W 009°27'3 6.4
2017-Aug-20 12:30N 38°40' W 009°31'4 8.1
2017-Aug-20 12:00N 38°37' W 009°35'3 5.1
2017-Aug-20 11:30N 38°40' W 009°33'2 5.0
2017-Aug-20 11:00N 38°40' W 009°30'2 4.8
2017-Aug-20 10:30N 38°39' W 009°27'3 6.0
2017-Aug-20 10:00N 38°41' W 009°24'1 0.5
2017-Aug-20 08:45N 38°42' W 009°25'0 0.0
2017-Aug-20 08:27N 38°42' W 009°25'0 0.0
2017-Aug-20 07:51N 38°42' W 009°25'0 0.0
2017-Aug-20 07:15N 38°42' W 009°25'0 0.0
2017-Aug-20 06:51N 38°42' W 009°25'0 0.0
2017-Aug-20 06:27N 38°42' W 009°25'0 0.0
2017-Aug-20 05:48N 38°42' W 009°25'0 0.0
2017-Aug-20 05:15N 38°42' W 009°25'0 0.0
2017-Aug-20 05:00N 38°42' W 009°25'0 0.0
2017-Aug-20 03:51N 38°42' W 009°25'0 0.0
2017-Aug-20 03:27N 38°42' W 009°25'0 0.0
2017-Aug-20 02:48N 38°42' W 009°25'0 0.0
2017-Aug-20 02:27N 38°42' W 009°25'0 0.0
2017-Aug-20 01:54N 38°42' W 009°25'0 0.0
2017-Aug-20 00:33N 38°42' W 009°25'0 0.0
2017-Aug-20 00:27N 38°42' W 009°25'0 0.0
2017-Aug-19 23:45N 38°42' W 009°25'0 0.0
2017-Aug-19 23:24N 38°42' W 009°25'0 0.0
2017-Aug-19 22:09N 38°42' W 009°25'0 0.0
2017-Aug-19 21:57N 38°42' W 009°25'0 0.0
2017-Aug-19 21:15N 38°42' W 009°25'0 0.0
2017-Aug-19 19:57N 38°42' W 009°25'0 0.0
2017-Aug-19 19:27N 38°42' W 009°25'0 0.0
2017-Aug-19 18:57N 38°42' W 009°25'0 0.0
2017-Aug-19 18:18N 38°42' W 009°25'0 0.0
2017-Aug-19 17:45N 38°42' W 009°25'0 0.0
2017-Aug-19 17:30N 38°42' W 009°25'0 0.0
2017-Aug-19 17:00N 38°42' W 009°25'0 0.9
2017-Aug-19 16:30N 38°42' W 009°24'4 6.8
2017-Aug-19 15:59N 38°38' W 009°26'611.3
2017-Aug-19 15:29N 38°38' W 009°33'817.5
2017-Aug-19 15:00N 38°45' W 009°39'7 7.3
2017-Aug-19 14:00N 38°50' W 009°32'817.0
2017-Aug-19 13:31N 38°56' W 009°40'5 9.5
2017-Aug-19 13:01N 38°58' W 009°46'4 7.5
2017-Aug-19 12:30N 38°54' W 009°46'510.0
2017-Aug-19 12:00N 38°51' W 009°42'5 9.2
2017-Aug-19 11:30N 38°47' W 009°38'5 9.3
2017-Aug-19 11:00N 38°43' W 009°34'5 9.9
2017-Aug-19 10:29N 38°40' W 009°29'5 9.8
2017-Aug-19 09:58N 38°39' W 009°23'3 7.0
2017-Aug-19 09:29N 38°40' W 009°19'2 4.8
2017-Aug-19 09:00N 38°41' W 009°16'2 3.5
2017-Aug-19 08:30N 38°42' W 009°14'0 0.1
2017-Aug-19 07:11N 38°42' W 009°14'0 0.0
2017-Aug-19 06:56N 38°42' W 009°14'0 0.0
2017-Aug-19 06:23N 38°42' W 009°14'0 0.0
2017-Aug-19 05:47N 38°42' W 009°14'0 0.0
2017-Aug-19 00:32N 38°42' W 009°14'0 0.0
2017-Aug-19 00:29N 38°42' W 009°14'0 0.0
2017-Aug-18 22:11N 38°42' W 009°14'0 0.0
2017-Aug-18 21:41N 38°42' W 009°14'0 0.0
2017-Aug-18 19:59N 38°42' W 009°14'0 0.0
2017-Aug-18 18:59N 38°42' W 009°14'0 0.0
2017-Aug-18 18:11N 38°42' W 009°14'0 0.0
2017-Aug-18 17:59N 38°42' W 009°14'0 0.0
2017-Aug-18 17:14N 38°42' W 009°14'0 0.0
2017-Aug-18 16:41N 38°42' W 009°14'0 0.0
2017-Aug-18 16:17N 38°42' W 009°14'0 0.0
2017-Aug-18 15:59N 38°42' W 009°14'0 0.0
2017-Aug-18 14:53N 38°42' W 009°14'0 0.0
2017-Aug-18 14:26N 38°42' W 009°14'0 0.0
2017-Aug-18 11:53N 38°42' W 009°14'0 0.0
2017-Aug-18 11:17N 38°42' W 009°14'0 0.0
2017-Aug-18 10:59N 38°42' W 009°14'0 0.0
2017-Aug-18 10:20N 38°42' W 009°14'0 0.0
2017-Aug-18 09:59N 38°42' W 009°14'0 0.0
2017-Aug-18 09:17N 38°42' W 009°14'0 0.0
2017-Aug-18 08:05N 38°42' W 009°14'0 0.0
2017-Aug-18 07:47N 38°42' W 009°14'0 0.0
2017-Aug-18 07:11N 38°42' W 009°14'0 0.0
2017-Aug-18 06:59N 38°42' W 009°14'0 0.0
2017-Aug-18 05:41N 38°42' W 009°14'0 0.0
2017-Aug-18 05:29N 38°42' W 009°14'0 0.0
2017-Aug-18 04:35N 38°42' W 009°14'0 0.0
2017-Aug-18 04:17N 38°42' W 009°14'0 0.0
2017-Aug-18 03:53N 38°42' W 009°14'0 0.0
2017-Aug-18 02:59N 38°42' W 009°14'0 0.0
2017-Aug-18 01:41N 38°42' W 009°14'0 0.0
2017-Aug-18 01:17N 38°42' W 009°14'0 0.0
2017-Aug-18 00:17N 38°42' W 009°14'0 0.0
2017-Aug-17 23:59N 38°42' W 009°14'0 0.0
2017-Aug-17 23:17N 38°42' W 009°14'0 0.0
2017-Aug-17 22:59N 38°42' W 009°14'0 0.0
2017-Aug-17 21:56N 38°42' W 009°14'0 0.0
2017-Aug-17 19:35N 38°42' W 009°14'0 0.0
2017-Aug-17 19:14N 38°42' W 009°14'0 0.0
2017-Aug-17 18:41N 38°42' W 009°14'0 0.0
2017-Aug-17 18:11N 38°42' W 009°14'0 0.0
2017-Aug-17 16:56N 38°42' W 009°14'0 0.0
2017-Aug-17 16:29N 38°42' W 009°14'0 0.0
2017-Aug-17 15:59N 38°42' W 009°14'0 0.0
2017-Aug-17 15:26N 38°42' W 009°14'0 0.0
2017-Aug-17 14:59N 38°42' W 009°14'0 0.0
2017-Aug-17 14:29N 38°42' W 009°14'0 0.0
2017-Aug-17 13:47N 38°42' W 009°14'0 0.0
2017-Aug-17 12:56N 38°42' W 009°14'0 0.0
2017-Aug-17 12:23N 38°42' W 009°14'0 0.0
2017-Aug-17 11:47N 38°42' W 009°14'0 0.0
2017-Aug-17 11:17N 38°42' W 009°14'0 0.0
2017-Aug-17 10:59N 38°42' W 009°14'0 0.0
2017-Aug-17 10:17N 38°42' W 009°14'0 0.0
2017-Aug-17 08:59N 38°42' W 009°14'0 0.0
2017-Aug-17 08:30N 38°42' W 009°14'2 4.8
2017-Aug-17 08:00N 38°41' W 009°17'510.9
2017-Aug-17 07:30N 38°40' W 009°23'4 8.8
2017-Aug-17 07:00N 38°38' W 009°28'612.5
2017-Aug-17 06:30N 38°39' W 009°36'1121.7
2017-Aug-17 06:00N 38°48' W 009°45'917.8
2017-Aug-17 05:30N 38°55' W 009°52'  
2017-Aug-14 07:43N 47°59' W 005°12'3 3.7
2017-Aug-14 06:58N 48°01' W 005°10'3 2.9
2017-Aug-14 05:58N 48°04' W 005°08'3 2.3
2017-Aug-14 04:48N 48°06' W 005°08'6 7.5
2017-Aug-14 03:58N 48°12' W 005°07'8 7.9
2017-Aug-14 02:58N 48°20' W 005°05'8 7.4
2017-Aug-14 01:54N 48°28' W 005°00'4 9.2
2017-Aug-14 01:30N 48°30' W 004°56'5 9.7
2017-Aug-14 00:59N 48°33' W 004°51'  
Track history (hours):
 
Tides and Currents Weather Stations Pressure Air Temp Water Temp Dewpoint Dewpoint Depression Visibility Wind Speed Wind Dir Waves Ship Positions

Azzam Uae2

Last reported at 2017-Aug-21 12:00 UTC. Time now 2017-Sep-22 20:38 UTC.
Position N 38°42' W 009°25'.
Warning: this ship's position is 32 days out of date.

MMSI: 470437000.

Date/timePositionNaut miles runAvg speedWind from/ knotsBaromVisibWave heightAir tempDewpointWater temp
2017-Aug-21 12:00N 38°42' W 009°25'0 0.0
2017-Aug-20 14:05N 38°42' W 009°25'0 0.0
2017-Aug-20 13:53N 38°42' W 009°25'1 2.3
2017-Aug-20 13:26N 38°41' W 009°25'1 2.6
2017-Aug-20 13:00N 38°40' W 009°27'3 6.4
2017-Aug-20 12:30N 38°40' W 009°31'4 8.1
2017-Aug-20 12:00N 38°37' W 009°35'3 5.1
2017-Aug-20 11:30N 38°40' W 009°33'2 5.0
2017-Aug-20 11:00N 38°40' W 009°30'2 4.8
2017-Aug-20 10:30N 38°39' W 009°27'3 6.0
2017-Aug-20 10:00N 38°41' W 009°24'1 0.5
2017-Aug-20 08:45N 38°42' W 009°25'0 0.0
2017-Aug-20 08:27N 38°42' W 009°25'0 0.0
2017-Aug-20 07:51N 38°42' W 009°25'0 0.0
2017-Aug-20 07:15N 38°42' W 009°25'0 0.0
2017-Aug-20 06:51N 38°42' W 009°25'0 0.0
2017-Aug-20 06:27N 38°42' W 009°25'0 0.0
2017-Aug-20 05:48N 38°42' W 009°25'0 0.0
2017-Aug-20 05:15N 38°42' W 009°25'0 0.0
2017-Aug-20 05:00N 38°42' W 009°25'0 0.0
2017-Aug-20 03:51N 38°42' W 009°25'0 0.0
2017-Aug-20 03:27N 38°42' W 009°25'0 0.0
2017-Aug-20 02:48N 38°42' W 009°25'0 0.0
2017-Aug-20 02:27N 38°42' W 009°25'0 0.0
2017-Aug-20 01:54N 38°42' W 009°25'0 0.0
2017-Aug-20 00:33N 38°42' W 009°25'0 0.0
2017-Aug-20 00:27N 38°42' W 009°25'0 0.0
2017-Aug-19 23:45N 38°42' W 009°25'0 0.0
2017-Aug-19 23:24N 38°42' W 009°25'0 0.0
2017-Aug-19 22:09N 38°42' W 009°25'0 0.0
2017-Aug-19 21:57N 38°42' W 009°25'0 0.0
2017-Aug-19 21:15N 38°42' W 009°25'0 0.0
2017-Aug-19 19:57N 38°42' W 009°25'0 0.0
2017-Aug-19 19:27N 38°42' W 009°25'0 0.0
2017-Aug-19 18:57N 38°42' W 009°25'0 0.0
2017-Aug-19 18:18N 38°42' W 009°25'0 0.0
2017-Aug-19 17:45N 38°42' W 009°25'0 0.0
2017-Aug-19 17:30N 38°42' W 009°25'0 0.0
2017-Aug-19 17:00N 38°42' W 009°25'0 0.9
2017-Aug-19 16:30N 38°42' W 009°24'4 6.8
2017-Aug-19 15:59N 38°38' W 009°26'611.3
2017-Aug-19 15:29N 38°38' W 009°33'817.5
2017-Aug-19 15:00N 38°45' W 009°39'7 7.3
2017-Aug-19 14:00N 38°50' W 009°32'817.0
2017-Aug-19 13:31N 38°56' W 009°40'5 9.5
2017-Aug-19 13:01N 38°58' W 009°46'4 7.5
2017-Aug-19 12:30N 38°54' W 009°46'510.0
2017-Aug-19 12:00N 38°51' W 009°42'5 9.2
2017-Aug-19 11:30N 38°47' W 009°38'5 9.3
2017-Aug-19 11:00N 38°43' W 009°34'5 9.9
2017-Aug-19 10:29N 38°40' W 009°29'5 9.8
2017-Aug-19 09:58N 38°39' W 009°23'3 7.0
2017-Aug-19 09:29N 38°40' W 009°19'2 4.8
2017-Aug-19 09:00N 38°41' W 009°16'2 3.5
2017-Aug-19 08:30N 38°42' W 009°14'0 0.1
2017-Aug-19 07:11N 38°42' W 009°14'0 0.0
2017-Aug-19 06:56N 38°42' W 009°14'0 0.0
2017-Aug-19 06:23N 38°42' W 009°14'0 0.0
2017-Aug-19 05:47N 38°42' W 009°14'0 0.0
2017-Aug-19 00:32N 38°42' W 009°14'0 0.0
2017-Aug-19 00:29N 38°42' W 009°14'0 0.0
2017-Aug-18 22:11N 38°42' W 009°14'0 0.0
2017-Aug-18 21:41N 38°42' W 009°14'0 0.0
2017-Aug-18 19:59N 38°42' W 009°14'0 0.0
2017-Aug-18 18:59N 38°42' W 009°14'0 0.0
2017-Aug-18 18:11N 38°42' W 009°14'0 0.0
2017-Aug-18 17:59N 38°42' W 009°14'0 0.0
2017-Aug-18 17:14N 38°42' W 009°14'0 0.0
2017-Aug-18 16:41N 38°42' W 009°14'0 0.0
2017-Aug-18 16:17N 38°42' W 009°14'0 0.0
2017-Aug-18 15:59N 38°42' W 009°14'0 0.0
2017-Aug-18 14:53N 38°42' W 009°14'0 0.0
2017-Aug-18 14:26N 38°42' W 009°14'0 0.0
2017-Aug-18 11:53N 38°42' W 009°14'0 0.0
2017-Aug-18 11:17N 38°42' W 009°14'0 0.0
2017-Aug-18 10:59N 38°42' W 009°14'0 0.0
2017-Aug-18 10:20N 38°42' W 009°14'0 0.0
2017-Aug-18 09:59N 38°42' W 009°14'0 0.0
2017-Aug-18 09:17N 38°42' W 009°14'0 0.0
2017-Aug-18 08:05N 38°42' W 009°14'0 0.0
2017-Aug-18 07:47N 38°42' W 009°14'0 0.0
2017-Aug-18 07:11N 38°42' W 009°14'0 0.0
2017-Aug-18 06:59N 38°42' W 009°14'0 0.0
2017-Aug-18 05:41N 38°42' W 009°14'0 0.0
2017-Aug-18 05:29N 38°42' W 009°14'0 0.0
2017-Aug-18 04:35N 38°42' W 009°14'0 0.0
2017-Aug-18 04:17N 38°42' W 009°14'0 0.0
2017-Aug-18 03:53N 38°42' W 009°14'0 0.0
2017-Aug-18 02:59N 38°42' W 009°14'0 0.0
2017-Aug-18 01:41N 38°42' W 009°14'0 0.0
2017-Aug-18 01:17N 38°42' W 009°14'0 0.0
2017-Aug-18 00:17N 38°42' W 009°14'0 0.0
2017-Aug-17 23:59N 38°42' W 009°14'0 0.0
2017-Aug-17 23:17N 38°42' W 009°14'0 0.0
2017-Aug-17 22:59N 38°42' W 009°14'0 0.0
2017-Aug-17 21:56N 38°42' W 009°14'0 0.0
2017-Aug-17 19:35N 38°42' W 009°14'0 0.0
2017-Aug-17 19:14N 38°42' W 009°14'0 0.0
2017-Aug-17 18:41N 38°42' W 009°14'0 0.0
2017-Aug-17 18:11N 38°42' W 009°14'0 0.0
2017-Aug-17 16:56N 38°42' W 009°14'0 0.0
2017-Aug-17 16:29N 38°42' W 009°14'0 0.0
2017-Aug-17 15:59N 38°42' W 009°14'0 0.0
2017-Aug-17 15:26N 38°42' W 009°14'0 0.0
2017-Aug-17 14:59N 38°42' W 009°14'0 0.0
2017-Aug-17 14:29N 38°42' W 009°14'0 0.0
2017-Aug-17 13:47N 38°42' W 009°14'0 0.0
2017-Aug-17 12:56N 38°42' W 009°14'0 0.0
2017-Aug-17 12:23N 38°42' W 009°14'0 0.0
2017-Aug-17 11:47N 38°42' W 009°14'0 0.0
2017-Aug-17 11:17N 38°42' W 009°14'0 0.0
2017-Aug-17 10:59N 38°42' W 009°14'0 0.0
2017-Aug-17 10:17N 38°42' W 009°14'0 0.0
2017-Aug-17 08:59N 38°42' W 009°14'0 0.0
2017-Aug-17 08:30N 38°42' W 009°14'2 4.8
2017-Aug-17 08:00N 38°41' W 009°17'510.9
2017-Aug-17 07:30N 38°40' W 009°23'4 8.8
2017-Aug-17 07:00N 38°38' W 009°28'612.5
2017-Aug-17 06:30N 38°39' W 009°36'1121.7
2017-Aug-17 06:00N 38°48' W 009°45'917.8
2017-Aug-17 05:30N 38°55' W 009°52'  
2017-Aug-14 07:43N 47°59' W 005°12'3 3.7
2017-Aug-14 06:58N 48°01' W 005°10'3 2.9
2017-Aug-14 05:58N 48°04' W 005°08'3 2.3
2017-Aug-14 04:48N 48°06' W 005°08'6 7.5
2017-Aug-14 03:58N 48°12' W 005°07'8 7.9
2017-Aug-14 02:58N 48°20' W 005°05'8 7.4
2017-Aug-14 01:54N 48°28' W 005°00'4 9.2
2017-Aug-14 01:30N 48°30' W 004°56'5 9.7
2017-Aug-14 00:59N 48°33' W 004°51'  

Dump ship's entire track history